Time;durP1;ratioP1;P1;durP2;ratioP2;P2;SDS_P1;SDS_P2;PMS_P1;PMS_P2;Temp;Humidity;BMP_temperature;BMP_pressure;BME280_temperature;BME280_humidity;BME280_pressure;Samples;Min_cycle;Max_cycle;Signal;HPM_P1;HPM_P2
2023/08/19 00:03:43;;;;;;;15.65;3.70;;;;;;;21.11;64.93;100057.50;10459761;28;20048;-76
2023/08/19 00:08:44;;;;;;;11.07;3.50;;;;;;;20.56;64.92;99985.28;10470630;28;20096;-75
2023/08/19 00:13:44;;;;;;;16.45;4.55;;;;;;;20.90;64.61;100048.22;10459001;28;20049;-75
2023/08/19 00:18:45;;;;;;;15.43;4.20;;;;;;;20.23;65.30;99938.25;10457684;28;20063;-75
2023/08/19 00:23:46;;;;;;;12.20;4.40;;;;;;;20.66;65.67;100033.22;10459293;28;20051;-76
2023/08/19 00:28:47;;;;;;;22.33;4.95;;;;;;;20.61;65.54;100052.00;10458811;28;20512;-75
2023/08/19 00:33:47;;;;;;;13.70;3.85;;;;;;;20.17;65.91;99993.16;10458364;28;20040;-76
2023/08/19 00:38:51;;;;;;;20.35;5.53;;;;;;;20.43;65.92;100042.19;10458714;28;20040;-73
2023/08/19 00:43:54;;;;;;;10.23;3.83;;;;;;;20.60;66.17;100056.59;10457848;28;20049;-75
2023/08/19 00:48:55;;;;;;;15.02;3.90;;;;;;;20.62;66.11;100062.56;10458880;28;20084;-75
2023/08/19 00:53:56;;;;;;;13.52;4.57;;;;;;;20.50;66.33;100057.19;10457391;28;20480;-74
2023/08/19 00:58:57;;;;;;;32.65;5.63;;;;;;;20.49;66.56;100060.94;10457320;28;20037;-74
2023/08/19 01:03:58;;;;;;;18.30;4.43;;;;;;;20.16;66.16;99991.53;10457897;28;20059;-74
2023/08/19 01:09:52;;;;;;;46.88;6.05;;;;;;;20.62;67.74;100064.47;10457323;28;20068;-75
2023/08/19 01:14:59;;;;;;;39.20;6.00;;;;;;;20.40;67.81;100070.50;10457891;28;20074;-74
2023/08/19 01:20:00;;;;;;;37.50;5.85;;;;;;;20.22;67.26;100067.94;10456618;28;20048;-74
2023/08/19 01:25:01;;;;;;;28.48;4.43;;;;;;;20.10;68.00;100056.34;10458019;28;20476;-74
2023/08/19 01:30:02;;;;;;;44.83;5.85;;;;;;;20.02;68.44;100057.56;10456830;28;20041;-74
2023/08/19 01:35:04;;;;;;;43.03;4.85;;;;;;;20.04;69.00;100074.28;10456284;28;20044;-74
2023/08/19 01:40:10;;;;;;;24.58;4.40;;;;;;;20.01;70.48;100070.22;10455684;28;20041;-74
2023/08/19 01:45:11;;;;;;;46.35;5.53;;;;;;;19.53;69.56;99992.28;10456103;28;20037;-74
2023/08/19 01:50:12;;;;;;;54.10;5.53;;;;;;;19.55;70.04;100012.56;10455823;28;20049;-75
2023/08/19 01:55:12;;;;;;;142.30;12.88;;;;;;;19.69;70.77;100055.47;10455202;28;20052;-74
2023/08/19 02:00:14;;;;;;;125.78;10.63;;;;;;;18.89;70.86;99949.09;10455668;28;20060;-74
2023/08/19 02:05:14;;;;;;;17.88;3.88;;;;;;;19.82;70.95;100077.59;10455389;28;20041;-74
2023/08/19 02:10:15;;;;;;;16.88;3.75;;;;;;;19.95;70.31;100081.94;10455609;28;20107;-74
2023/08/19 02:15:17;;;;;;;127.47;9.82;;;;;;;19.81;70.25;100059.00;10454962;28;20400;-74
2023/08/19 02:20:18;;;;;;;90.65;8.30;;;;;;;19.83;70.62;100089.19;10466200;28;20048;-74
2023/08/19 02:25:19;;;;;;;46.75;5.88;;;;;;;19.80;71.00;100095.91;10453496;28;20052;-74
2023/08/19 02:30:20;;;;;;;53.40;6.43;;;;;;;19.75;70.97;100086.88;10454153;28;20178;-74
2023/08/19 02:35:20;;;;;;;35.50;4.85;;;;;;;19.33;70.93;100025.00;10454458;28;20033;-74
2023/08/19 02:40:21;;;;;;;329.65;22.27;;;;;;;19.59;70.94;100051.47;10453675;28;20048;-74
2023/08/19 02:45:22;;;;;;;371.73;23.58;;;;;;;19.79;71.33;100078.06;10453748;28;20045;-74
2023/08/19 02:50:23;;;;;;;69.30;7.15;;;;;;;19.86;71.61;100052.88;10453466;28;20040;-74
2023/08/19 02:55:23;;;;;;;66.88;7.43;;;;;;;20.29;70.73;100087.50;10454764;28;20420;-75
2023/08/19 03:00:24;;;;;;;85.72;7.75;;;;;;;20.44;70.50;100087.00;10454047;28;20037;-75
2023/08/19 03:05:25;;;;;;;294.17;21.67;;;;;;;20.79;69.70;100054.53;10453316;28;20037;-75
2023/08/19 03:10:25;;;;;;;160.77;11.40;;;;;;;21.88;67.19;100088.47;10454294;28;20135;-75
2023/08/19 03:15:26;;;;;;;47.85;5.53;;;;;;;23.20;64.14;100105.47;10461812;28;20056;-75
2023/08/19 03:20:27;;;;;;;38.65;5.75;;;;;;;24.17;61.21;100090.97;10460094;28;20040;-77
2023/08/19 03:25:28;;;;;;;157.82;11.50;;;;;;;25.17;58.76;100105.19;10493232;28;20424;-76
2023/08/19 03:30:29;;;;;;;55.88;5.65;;;;;;;26.09;55.78;100126.09;10494296;28;20044;-76
2023/08/19 03:35:29;;;;;;;86.07;7.32;;;;;;;26.55;53.58;100085.09;10471600;28;20083;-76
2023/08/19 03:40:30;;;;;;;103.05;7.32;;;;;;;27.29;51.51;100135.91;10460381;28;20045;-77
2023/08/19 03:45:33;;;;;;;29.02;4.28;;;;;;;27.72;47.76;100099.78;10461650;28;20174;-76
2023/08/19 03:50:34;;;;;;;12.85;2.67;;;;;;;28.39;47.09;100121.72;10471403;28;20041;-76
2023/08/19 03:55:35;;;;;;;16.98;3.45;;;;;;;29.09;45.70;100110.19;10471561;28;20416;-76
2023/08/19 04:00:37;;;;;;;108.45;9.32;;;;;;;29.48;45.22;100109.81;10459575;28;20086;-76
2023/08/19 04:05:37;;;;;;;18.35;3.58;;;;;;;30.01;43.84;100120.38;10458622;28;20094;-76
2023/08/19 04:10:38;;;;;;;13.00;2.75;;;;;;;30.18;41.90;100116.22;10459705;28;20098;-76
2023/08/19 04:15:39;;;;;;;22.13;3.83;;;;;;;30.25;41.43;100113.94;10471328;28;20156;-76
2023/08/19 04:20:40;;;;;;;12.00;2.83;;;;;;;30.36;40.96;100120.81;10459657;28;20033;-76
2023/08/19 04:25:41;;;;;;;21.27;3.30;;;;;;;30.43;40.77;100120.41;10458970;28;20037;-76
2023/08/19 04:30:41;;;;;;;11.30;2.45;;;;;;;30.50;40.73;100134.50;10458888;28;20036;-76
2023/08/19 04:35:42;;;;;;;23.88;3.38;;;;;;;30.83;41.51;100126.16;10458263;28;20036;-76
2023/08/19 04:40:43;;;;;;;11.38;2.60;;;;;;;31.31;39.19;100131.88;10458583;28;20090;-76
2023/08/19 04:45:44;;;;;;;16.42;3.30;;;;;;;31.86;39.12;100130.81;10457904;28;20075;-78
2023/08/19 04:50:44;;;;;;;16.90;2.80;;;;;;;31.42;38.14;100093.25;10458716;28;20052;-76
2023/08/19 04:55:45;;;;;;;15.48;2.97;;;;;;;31.56;37.82;100113.16;10458083;28;20044;-76
2023/08/19 05:00:46;;;;;;;25.08;3.78;;;;;;;31.53;38.43;100141.25;10457399;28;20416;-76
2023/08/19 05:05:46;;;;;;;20.15;3.50;;;;;;;30.97;39.38;100139.84;10457945;28;20047;-76
2023/08/19 05:10:47;;;;;;;19.08;3.10;;;;;;;30.67;39.26;100140.19;10457972;28;20045;-76
2023/08/19 05:15:48;;;;;;;10.93;2.30;;;;;;;30.62;39.37;100134.78;10467689;28;20040;-75
2023/08/19 05:20:49;;;;;;;10.32;3.00;;;;;;;30.81;39.28;100139.34;10474121;28;20408;-75
2023/08/19 05:25:50;;;;;;;15.90;3.00;;;;;;;30.89;39.28;100131.22;10457140;28;20040;-75
2023/08/19 05:30:50;;;;;;;14.00;3.22;;;;;;;31.03;38.79;100142.16;10457679;28;20115;-75
2023/08/19 05:35:51;;;;;;;22.17;3.20;;;;;;;31.13;38.68;100138.34;10456029;28;20049;-75
2023/08/19 05:40:52;;;;;;;16.75;3.20;;;;;;;31.24;38.05;100120.53;10456331;28;20044;-75
2023/08/19 05:45:53;;;;;;;12.10;3.20;;;;;;;31.53;38.32;100127.53;10456245;28;20044;-75
2023/08/19 05:50:54;;;;;;;16.95;2.80;;;;;;;31.73;38.01;100137.19;10455778;28;20041;-74
2023/08/19 05:55:55;;;;;;;13.43;3.38;;;;;;;31.95;36.39;100122.59;10456203;28;20049;-74
2023/08/19 06:01:00;;;;;;;9.15;3.67;;;;;;;31.52;36.00;100032.56;10455673;28;20040;-74
2023/08/19 06:06:05;;;;;;;24.60;2.90;;;;;;;32.34;34.76;100115.47;10455305;28;20049;-74
2023/08/19 06:11:09;;;;;;;42.97;4.57;;;;;;;32.18;37.20;100049.16;10477801;28;20048;-74
2023/08/19 06:16:09;;;;;;;13.23;3.00;;;;;;;32.80;35.50;100125.16;10487608;28;20048;-77
2023/08/19 06:21:11;;;;;;;25.20;3.42;;;;;;;32.89;35.72;100132.25;10457195;28;20496;-77
2023/08/19 06:26:12;;;;;;;10.73;3.20;;;;;;;32.73;35.37;100087.13;10463617;28;20039;-77
2023/08/19 06:31:13;;;;;;;10.65;3.20;;;;;;;33.16;34.55;100139.41;10467827;28;20400;-77
2023/08/19 06:36:17;;;;;;;32.63;4.28;;;;;;;33.45;34.01;100146.19;10485926;28;20105;-76
2023/08/19 06:41:18;;;;;;;12.40;3.00;;;;;;;33.66;33.27;100142.78;10461642;28;20082;-79
2023/08/19 06:46:20;;;;;;;9.77;2.95;;;;;;;33.59;33.02;100102.75;10471728;28;20402;-76
2023/08/19 06:51:21;;;;;;;8.52;2.60;;;;;;;33.58;32.77;100092.91;10475652;28;20052;-76
2023/08/19 06:56:43;;;;;;;8.40;2.83;;;;;;;33.66;32.51;100071.19;10459971;28;20045;-76
2023/08/19 07:01:50;;;;;;;5.05;2.72;;;;;;;34.18;32.12;100101.28;10492000;28;20040;-76
2023/08/19 07:06:51;;;;;;;9.68;3.03;;;;;;;34.55;31.05;100124.44;10494168;28;20091;-74
2023/08/19 07:11:53;;;;;;;13.27;2.90;;;;;;;34.51;30.79;100117.94;10496278;28;20051;-78
2023/08/19 07:17:00;;;;;;;14.50;2.90;;;;;;;34.72;30.35;100124.31;10461383;28;20044;-75
2023/08/19 07:22:02;;;;;;;13.43;3.00;;;;;;;34.61;29.97;100097.47;10473241;28;20052;-74
2023/08/19 07:27:05;;;;;;;15.17;3.57;;;;;;;34.66;29.62;100083.47;10461050;28;20049;-74
2023/08/19 09:21:31;;;;;;;14.02;2.85;;;;;;;36.89;25.54;100064.91;11229455;23;20509;-60
2023/08/19 09:26:32;;;;;;;9.97;2.70;;;;;;;36.80;25.19;100062.28;10329928;28;20042;-61
2023/08/19 09:31:33;;;;;;;11.83;3.40;;;;;;;36.81;25.29;100025.13;10330086;28;20505;-60
2023/08/19 09:36:33;;;;;;;9.97;2.27;;;;;;;37.31;24.26;100067.28;10333627;28;20142;-60
2023/08/19 09:41:39;;;;;;;13.47;2.20;;;;;;;37.29;23.10;100053.75;10333418;28;20034;-61
2023/08/19 09:46:40;;;;;;;42.50;4.95;;;;;;;37.16;22.68;100047.50;10332365;28;20565;-61
2023/08/19 09:51:51;;;;;;;8.63;2.27;;;;;;;37.19;22.89;100055.09;10329045;28;20082;-61
2023/08/19 09:56:56;;;;;;;17.25;2.55;;;;;;;37.16;22.92;100038.38;10333163;28;20073;-73
2023/08/19 10:02:00;;;;;;;11.10;2.50;;;;;;;36.79;22.56;99980.38;10333116;28;20042;-73
2023/08/19 10:07:03;;;;;;;8.23;2.35;;;;;;;36.62;23.65;99991.75;10331654;28;20199;-74
2023/08/19 10:12:07;;;;;;;7.65;2.47;;;;;;;36.91;24.00;100049.53;10332992;28;20046;-72
2023/08/19 10:17:11;;;;;;;20.50;3.25;;;;;;;37.16;22.88;100046.69;10331137;28;20069;-72
2023/08/19 10:22:15;;;;;;;12.32;2.35;;;;;;;37.20;22.67;100026.22;10302046;28;20057;-72
2023/08/19 10:27:18;;;;;;;8.32;2.20;;;;;;;37.04;22.58;100024.59;10290836;28;20055;-72
2023/08/19 10:32:31;;;;;;;6.60;2.10;;;;;;;37.01;22.69;99967.97;10291914;28;20122;-74
2023/08/19 10:37:32;;;;;;;5.97;2.15;;;;;;;37.59;22.19;100018.16;10292141;28;20482;-74
2023/08/19 10:42:33;;;;;;;7.57;2.30;;;;;;;37.85;21.93;100008.47;10287282;28;20129;-72
2023/08/19 10:47:42;;;;;;;3.63;1.70;;;;;;;38.00;22.65;100002.13;10290466;28;20046;-73
2023/08/19 10:53:07;;;;;;;11.98;2.20;;;;;;;37.95;21.42;100002.38;10290267;28;20053;-74
2023/08/19 10:58:08;;;;;;;19.75;2.78;;;;;;;37.87;21.70;100000.56;10291472;28;20063;-73
2023/08/19 11:03:09;;;;;;;24.17;2.53;;;;;;;37.61;21.34;99960.41;10291214;28;20038;-73
2023/08/19 11:08:10;;;;;;;14.15;2.10;;;;;;;37.83;20.97;99975.56;10290960;28;20046;-74
2023/08/19 11:13:11;;;;;;;9.97;2.47;;;;;;;37.53;20.79;99958.63;10291021;28;20043;-73
2023/08/19 11:18:19;;;;;;;7.60;2.17;;;;;;;37.32;20.21;99967.19;10289913;28;20047;-76
2023/08/19 11:23:28;;;;;;;7.20;1.95;;;;;;;37.42;20.74;99985.22;10290757;28;20092;-74
2023/08/19 11:28:29;;;;;;;5.30;2.00;;;;;;;37.49;21.45;100002.06;10273556;28;20035;-74
2023/08/19 11:33:33;;;;;;;10.20;1.80;;;;;;;37.00;20.74;99930.34;10288675;28;20047;-74
2023/08/19 11:38:34;;;;;;;9.15;1.70;;;;;;;37.63;20.53;99994.09;10289582;28;20042;-76
2023/08/19 11:43:45;;;;;;;8.03;2.10;;;;;;;37.78;19.80;100000.78;10290169;28;20046;-74
2023/08/19 11:48:46;;;;;;;10.80;2.20;;;;;;;37.66;20.00;100000.88;10272545;28;20043;-74
2023/08/19 11:53:53;;;;;;;13.65;2.13;;;;;;;37.29;20.43;99965.13;10291609;28;20498;-70
2023/08/19 11:58:54;;;;;;;19.77;2.70;;;;;;;36.77;20.29;99980.75;10298163;28;20154;-77
2023/08/19 12:03:55;;;;;;;6.33;1.80;;;;;;;36.64;21.30;99931.34;10297635;28;20039;-81
2023/08/19 12:08:56;;;;;;;8.10;1.93;;;;;;;37.13;20.13;99992.81;10297802;28;20046;-81
2023/08/19 12:13:57;;;;;;;18.37;2.10;;;;;;;37.16;20.83;99992.09;10296536;28;20498;-85
2023/08/19 12:18:58;;;;;;;27.20;3.20;;;;;;;36.95;21.15;99991.50;10295619;28;20089;-75
2023/08/19 12:23:59;;;;;;;14.25;2.45;;;;;;;36.95;21.17;99969.38;10296482;28;20054;-74
2023/08/19 12:29:00;;;;;;;10.40;2.50;;;;;;;37.08;20.71;99983.97;10296110;28;20054;-74
2023/08/19 12:34:00;;;;;;;13.33;2.10;;;;;;;37.11;20.25;99995.13;10292403;28;20169;-75
2023/08/19 12:39:01;;;;;;;22.77;2.73;;;;;;;37.06;20.23;99980.75;10277874;28;20197;-74
2023/08/19 12:44:02;;;;;;;28.23;2.40;;;;;;;37.01;20.41;99981.81;10283203;28;20042;-75
2023/08/19 12:49:03;;;;;;;8.57;1.90;;;;;;;36.88;20.43;99988.53;10296412;28;20054;-76
2023/08/19 12:54:04;;;;;;;11.40;2.10;;;;;;;36.55;20.28;99948.09;10295024;28;20043;-75
2023/08/19 12:59:05;;;;;;;5.47;1.87;;;;;;;36.41;20.70;99920.84;10283318;28;20101;-75
2023/08/19 13:04:06;;;;;;;10.60;1.85;;;;;;;36.65;20.75;99964.22;10293630;28;20051;-75
2023/08/19 13:09:07;;;;;;;12.95;2.05;;;;;;;36.69;20.57;99990.00;10294013;28;20042;-75
2023/08/19 13:14:07;;;;;;;10.07;1.77;;;;;;;36.52;20.34;99987.53;10294795;28;20038;-75
2023/08/19 13:19:09;;;;;;;9.27;1.60;;;;;;;35.97;21.05;99936.50;10294039;28;20066;-74
2023/08/19 13:24:09;;;;;;;11.63;2.20;;;;;;;36.40;21.15;99987.56;10293939;28;20534;-74
2023/08/19 13:29:10;;;;;;;20.77;2.55;;;;;;;35.94;21.22;99935.22;10294734;28;20043;-75
2023/08/19 13:34:11;;;;;;;9.32;1.98;;;;;;;36.30;21.06;99992.44;10294148;28;20447;-74
2023/08/19 13:39:13;;;;;;;11.82;1.70;;;;;;;36.04;21.06;99975.44;10275751;28;20568;-75
2023/08/19 13:44:14;;;;;;;23.38;2.15;;;;;;;36.08;21.26;99985.47;10291650;28;20043;-74
2023/08/19 13:49:16;;;;;;;12.15;1.95;;;;;;;35.92;20.73;99956.06;10294056;28;20147;-75
2023/08/19 13:54:18;;;;;;;11.65;2.35;;;;;;;36.07;20.74;100007.91;10289375;28;20047;-75
2023/08/19 13:59:19;;;;;;;8.30;1.80;;;;;;;35.72;21.05;99964.16;10292404;28;20494;-75
2023/08/19 14:04:20;;;;;;;18.83;2.10;;;;;;;35.26;21.22;99922.00;10292272;28;20391;-74
2023/08/19 14:09:20;;;;;;;10.32;2.00;;;;;;;35.34;21.13;99936.88;10292230;28;20099;-74
2023/08/19 14:14:21;;;;;;;16.42;1.95;;;;;;;35.54;21.38;99998.66;10292841;28;20171;-75
2023/08/19 14:19:22;;;;;;;5.43;1.63;;;;;;;35.54;21.25;100001.41;10274754;28;20137;-74
2023/08/19 14:24:23;;;;;;;15.05;2.17;;;;;;;35.39;21.23;99995.44;10291876;28;20080;-74
2023/08/19 14:29:23;;;;;;;10.70;1.98;;;;;;;35.28;21.89;100012.78;10292623;28;20132;-74
2023/08/19 14:34:24;;;;;;;14.05;2.13;;;;;;;35.07;21.94;100001.81;10292096;28;20105;-75
2023/08/19 14:39:25;;;;;;;18.40;2.63;;;;;;;34.85;21.79;99992.75;10292201;28;20166;-75
2023/08/19 14:44:26;;;;;;;23.23;2.75;;;;;;;34.89;22.12;100020.47;10291740;28;20062;-76
2023/08/19 14:49:29;;;;;;;36.25;4.15;;;;;;;34.78;22.17;100027.56;10291089;28;20104;-75
2023/08/19 14:54:30;;;;;;;36.22;2.92;;;;;;;34.51;22.67;100016.69;10291610;28;20045;-75
2023/08/19 14:59:32;;;;;;;16.67;2.25;;;;;;;34.25;22.46;100005.06;10291269;28;20043;-74
2023/08/19 15:04:32;;;;;;;;;;;;;;;34.52;22.03;100045.09;10291800;28;20047;-74
2023/08/19 15:09:33;;;;;;;9.85;2.17;;;;;;;34.15;22.72;100041.28;10290708;28;20289;-71
2023/08/19 15:14:34;;;;;;;8.93;2.22;;;;;;;34.01;22.59;100049.75;10289204;28;20066;-72
2023/08/19 15:19:35;;;;;;;16.67;2.65;;;;;;;33.62;23.03;100036.00;10290652;28;20071;-72
2023/08/19 15:24:35;;;;;;;15.68;2.25;;;;;;;33.56;22.74;100059.34;10291208;28;20050;-71
2023/08/19 15:29:36;;;;;;;14.32;2.40;;;;;;;32.89;22.97;99991.94;10293437;28;20049;-72
2023/08/19 15:34:37;;;;;;;28.80;3.50;;;;;;;32.86;23.13;100019.31;10298409;28;20640;-71
2023/08/19 15:39:38;;;;;;;31.33;4.28;;;;;;;32.87;24.21;100070.44;10297941;28;20509;-72
2023/08/19 15:44:38;;;;;;;32.70;4.38;;;;;;;32.56;24.53;100054.91;10298789;28;20045;-72
2023/08/19 15:49:39;;;;;;;26.10;4.75;;;;;;;32.40;25.33;100075.69;10297343;28;20502;-71
2023/08/19 15:54:40;;;;;;;52.53;7.32;;;;;;;32.14;25.71;100076.47;10297281;28;20053;-72
2023/08/19 15:59:41;;;;;;;39.53;6.38;;;;;;;31.72;26.51;100075.16;10291365;28;20046;-72
2023/08/19 16:04:42;;;;;;;87.30;11.65;;;;;;;31.37;27.98;100092.22;10297510;28;20098;-72
2023/08/19 16:09:42;;;;;;;54.20;9.48;;;;;;;30.63;28.98;100029.53;10297290;28;20402;-71
2023/08/19 16:14:44;;;;;;;64.75;12.45;;;;;;;30.68;30.26;100103.41;10297078;28;20073;-72
2023/08/19 16:19:44;;;;;;;48.38;14.95;;;;;;;30.28;31.43;100107.84;10296791;28;20566;-72
2023/08/19 16:24:45;;;;;;;155.98;19.67;;;;;;;29.93;33.56;100117.53;10296256;28;20193;-71
2023/08/19 16:29:46;;;;;;;81.95;15.70;;;;;;;29.52;33.79;100113.56;10292109;28;20051;-77
2023/08/19 16:34:46;;;;;;;45.20;13.75;;;;;;;29.26;33.78;100115.94;10291266;28;20054;-72
2023/08/19 16:39:47;;;;;;;125.35;18.70;;;;;;;28.71;35.32;100069.16;10318850;28;20046;-72
2023/08/19 16:44:48;;;;;;;63.22;13.55;;;;;;;28.80;35.72;100134.91;10334217;28;20042;-72
2023/08/19 16:49:50;;;;;;;68.25;14.73;;;;;;;28.51;36.97;100135.84;10334411;28;20089;-72
2023/08/19 16:54:51;;;;;;;68.90;12.85;;;;;;;28.25;38.15;100143.50;10327528;28;20130;-72
2023/08/19 16:59:52;;;;;;;45.78;12.60;;;;;;;28.09;38.52;100155.66;10324385;28;20046;-72
2023/08/19 17:04:53;;;;;;;51.75;13.55;;;;;;;27.89;39.36;100153.97;10326172;28;20061;-72
2023/08/19 17:09:55;;;;;;;58.72;14.23;;;;;;;27.55;40.00;100141.13;10333799;28;20030;-72
2023/08/19 17:14:56;;;;;;;64.83;15.03;;;;;;;27.59;40.47;100169.50;10333075;28;20046;-72
2023/08/19 17:19:57;;;;;;;71.30;14.40;;;;;;;27.40;41.58;100174.00;10333127;28;20356;-72
2023/08/19 17:24:58;;;;;;;50.83;12.07;;;;;;;26.65;42.32;100101.38;10333093;28;20126;-72
2023/08/19 17:29:59;;;;;;;65.88;11.55;;;;;;;26.57;43.34;100121.06;10306220;28;20386;-72
2023/08/19 17:35:00;;;;;;;41.70;10.23;;;;;;;26.57;43.72;100164.63;10323272;28;20129;-72
2023/08/19 17:40:01;;;;;;;52.15;11.50;;;;;;;26.27;45.13;100133.66;10333287;28;20136;-72
2023/08/19 17:45:03;;;;;;;55.40;11.45;;;;;;;26.41;46.14;100186.47;10332249;28;20030;-72
2023/08/19 17:50:04;;;;;;;60.13;11.27;;;;;;;26.32;46.37;100177.19;10331560;28;20043;-72
2023/08/19 17:55:05;;;;;;;53.78;10.52;;;;;;;26.13;47.27;100165.28;10329614;28;20100;-72
2023/08/19 18:00:07;;;;;;;89.32;11.98;;;;;;;26.02;47.50;100153.59;10326015;28;20133;-72
2023/08/19 18:05:08;;;;;;;73.65;11.38;;;;;;;26.15;46.12;100179.44;10331732;28;20035;-72
2023/08/19 18:10:09;;;;;;;84.90;12.05;;;;;;;26.03;46.67;100187.09;10331222;28;20084;-72
2023/08/19 18:15:10;;;;;;;89.80;11.23;;;;;;;25.85;47.17;100175.66;10320455;28;20038;-72
2023/08/19 18:20:11;;;;;;;73.75;7.70;;;;;;;25.74;47.06;100177.53;10312735;28;20065;-71
2023/08/19 18:25:12;;;;;;;32.00;5.55;;;;;;;25.61;47.59;100175.38;10330577;28;20046;-72
2023/08/19 18:30:14;;;;;;;44.22;6.28;;;;;;;25.49;48.80;100183.81;10322639;28;20038;-72
2023/08/19 18:35:15;;;;;;;21.10;4.28;;;;;;;25.42;47.50;100169.63;10329964;28;20121;-72
2023/08/19 18:40:16;;;;;;;28.65;5.10;;;;;;;25.26;48.65;100176.16;10330723;28;20046;-72
2023/08/19 18:45:17;;;;;;;31.42;4.82;;;;;;;25.11;48.35;100168.75;10328986;28;20042;-72
2023/08/19 18:50:18;;;;;;;23.63;4.75;;;;;;;24.97;48.18;100165.72;10328962;28;20035;-72
2023/08/19 18:55:18;;;;;;;26.55;4.50;;;;;;;25.02;49.41;100176.63;10325480;28;20524;-72
2023/08/19 19:00:19;;;;;;;25.88;5.20;;;;;;;24.94;49.92;100182.56;10329887;28;20056;-71
2023/08/19 19:05:21;;;;;;;25.90;4.53;;;;;;;24.88;48.51;100185.53;10333788;28;20039;-71
2023/08/19 19:10:22;;;;;;;23.38;4.25;;;;;;;24.74;48.54;100188.75;10326558;28;20050;-72
2023/08/19 19:15:23;;;;;;;19.00;4.22;;;;;;;24.51;49.39;100160.13;10322988;28;20042;-72
2023/08/19 19:20:26;;;;;;;15.43;3.53;;;;;;;24.58;50.33;100192.47;10318824;28;20054;-71
2023/08/19 19:25:27;;;;;;;21.10;4.05;;;;;;;24.25;51.62;100161.06;10335380;28;20096;-71
2023/08/19 19:30:28;;;;;;;34.20;4.57;;;;;;;24.22;52.17;100192.25;10337708;28;20568;-71
2023/08/19 19:35:28;;;;;;;14.25;3.80;;;;;;;24.10;52.34;100189.72;10323920;28;20047;-71
2023/08/19 19:40:29;;;;;;;20.58;4.22;;;;;;;24.00;52.67;100210.56;10332825;28;20057;-71
2023/08/19 19:45:30;;;;;;;16.73;3.83;;;;;;;23.94;52.76;100214.31;10301923;28;20042;-71
2023/08/19 19:50:31;;;;;;;14.30;3.45;;;;;;;23.57;52.96;100147.25;10330512;28;20041;-71
2023/08/19 19:55:32;;;;;;;13.38;3.20;;;;;;;24.01;53.02;100214.91;10311777;28;20038;-71
2023/08/19 20:00:34;;;;;;;11.95;3.38;;;;;;;23.21;52.85;100085.44;10335282;28;20509;-71
2023/08/19 20:05:35;;;;;;;16.45;3.42;;;;;;;23.82;53.28;100184.66;10313123;28;20053;-71
2023/08/19 20:10:36;;;;;;;18.02;3.17;;;;;;;23.85;52.98;100211.25;10332382;28;20047;-71
2023/08/19 20:15:36;;;;;;;16.65;3.33;;;;;;;23.55;53.22;100173.81;10317931;28;20062;-69
2023/08/19 20:20:37;;;;;;;22.30;3.20;;;;;;;23.83;52.69;100222.34;10296200;28;20059;-75
2023/08/19 20:25:38;;;;;;;27.20;3.20;;;;;;;23.61;51.96;100192.59;10279612;28;20054;-71
2023/08/19 20:30:38;;;;;;;23.13;3.75;;;;;;;23.49;52.23;100177.56;10296394;28;20137;-71
2023/08/19 20:35:40;;;;;;;18.48;3.53;;;;;;;23.67;52.19;100213.25;10278462;28;20038;-71
2023/08/19 20:40:42;;;;;;;17.70;3.70;;;;;;;23.23;53.00;100161.88;10296474;28;20486;-71
2023/08/19 20:45:43;;;;;;;15.00;2.90;;;;;;;23.47;53.94;100213.06;10278537;28;20387;-71
2023/08/19 20:50:44;;;;;;;15.00;3.17;;;;;;;23.43;54.97;100226.31;10295266;28;20046;-71
2023/08/19 20:55:45;;;;;;;9.02;2.72;;;;;;;23.37;56.24;100226.53;10295684;28;20041;-71
2023/08/19 21:00:46;;;;;;;43.72;4.97;;;;;;;23.34;57.10;100225.13;10295228;28;20050;-71
2023/08/19 21:05:46;;;;;;;19.90;3.40;;;;;;;22.81;57.44;100156.25;10295237;28;20043;-71
2023/08/19 21:10:47;;;;;;;13.32;3.45;;;;;;;23.11;58.13;100209.97;10294337;28;20109;-71
2023/08/19 21:15:51;;;;;;;18.98;3.60;;;;;;;23.12;60.45;100210.78;10294643;28;20043;-71
2023/08/19 21:20:52;;;;;;;17.25;3.88;;;;;;;23.08;59.52;100207.78;10294662;28;20114;-71
2023/08/19 21:25:53;;;;;;;18.98;4.15;;;;;;;22.91;59.06;100205.09;10276270;28;20070;-72
2023/08/19 21:30:54;;;;;;;19.25;3.70;;;;;;;22.37;59.83;100141.88;10293525;28;20045;-71
2023/08/19 21:35:55;;;;;;;18.17;3.50;;;;;;;22.82;59.55;100216.63;10293980;28;20046;-71
2023/08/19 21:40:56;;;;;;;19.80;3.58;;;;;;;22.71;59.01;100216.53;10293709;28;20518;-71
2023/08/19 21:45:58;;;;;;;13.82;4.07;;;;;;;22.76;59.44;100230.13;10277103;28;20408;-71
2023/08/19 21:51:02;;;;;;;13.30;3.40;;;;;;;22.63;59.11;100208.81;10294185;28;20153;-71
2023/08/19 21:56:03;;;;;;;19.92;3.60;;;;;;;22.77;58.99;100220.94;10293190;28;20042;-71
2023/08/19 22:01:04;;;;;;;14.23;4.00;;;;;;;22.81;58.02;100196.06;10292524;28;20046;-71
2023/08/19 22:06:05;;;;;;;10.27;3.40;;;;;;;23.39;56.54;100216.22;10292934;28;20197;-71
2023/08/19 22:11:06;;;;;;;6.88;3.45;;;;;;;23.57;54.93;100142.69;10293182;28;20046;-71
2023/08/19 22:16:07;;;;;;;21.58;3.80;;;;;;;24.53;54.08;100211.44;10292595;28;20046;-71
2023/08/19 22:21:08;;;;;;;8.27;3.67;;;;;;;24.85;52.81;100208.63;10292168;28;20410;-71
2023/08/19 22:26:08;;;;;;;8.40;3.63;;;;;;;24.88;53.34;100220.84;10292498;28;20053;-71
2023/08/19 22:31:09;;;;;;;11.38;3.63;;;;;;;24.65;54.05;100222.09;10292182;28;20042;-72
2023/08/19 22:36:10;;;;;;;6.97;3.47;;;;;;;24.22;55.31;100219.38;10292266;28;20047;-71
2023/08/19 22:41:11;;;;;;;15.32;3.55;;;;;;;23.68;56.74;100223.00;10291018;28;20129;-71
2023/08/19 22:46:11;;;;;;;12.50;3.47;;;;;;;23.28;58.26;100238.91;10291373;28;20042;-71
2023/08/19 22:51:12;;;;;;;9.13;3.22;;;;;;;22.84;58.01;100225.34;10291783;28;20039;-71
2023/08/19 22:56:13;;;;;;;7.57;3.25;;;;;;;22.72;58.11;100228.16;10292056;28;20061;-71
2023/08/19 23:01:14;;;;;;;10.82;3.05;;;;;;;22.46;57.66;100227.00;10290857;28;20046;-71
2023/08/19 23:06:15;;;;;;;10.13;3.25;;;;;;;21.86;57.61;100164.41;10273796;28;20041;-71
2023/08/19 23:11:16;;;;;;;15.70;3.13;;;;;;;21.99;58.54;100203.03;10291387;28;20561;-71
2023/08/19 23:16:16;;;;;;;9.95;3.03;;;;;;;21.89;59.08;100204.47;10273932;28;20093;-71
2023/08/19 23:21:17;;;;;;;11.38;3.20;;;;;;;22.02;58.91;100233.09;10291187;28;20051;-71
2023/08/19 23:26:18;;;;;;;11.70;3.30;;;;;;;21.99;59.46;100233.59;10291106;28;20169;-71
2023/08/19 23:31:19;;;;;;;13.95;3.35;;;;;;;21.79;59.97;100223.25;10291077;28;20096;-71
2023/08/19 23:36:20;;;;;;;10.63;2.97;;;;;;;21.82;60.12;100236.28;10291172;28;20521;-71
2023/08/19 23:41:21;;;;;;;10.98;3.40;;;;;;;21.64;60.71;100212.19;10290681;28;20491;-71
2023/08/19 23:46:21;;;;;;;13.50;2.83;;;;;;;21.69;61.73;100239.31;10290125;28;20042;-72
2023/08/19 23:51:25;;;;;;;10.10;3.47;;;;;;;21.22;63.61;100187.34;10294035;28;20043;-71
2023/08/19 23:56:27;;;;;;;18.23;3.78;;;;;;;21.39;63.76;100228.78;10298566;28;20049;-71
